Fort Shaw, Montana
Current Conditions -  °F | °C
As of 2:53 PM on Wednesday 28 Jan 2015 (Local Time) from KGTF Reporting Station
Overcast Overcast  
Wind Chill: 38°   Ceiling: 8000
Heat Index: 43°   Visibility: 10mi
Dew Point: 32°   Wind: 8mph
Humidity: 65%   Direction: 50°NE
Pressure: 30.27"   Gusts: NA
Location:  47.51°N, 111.82°W
Report Text: KGTF 282153Z 05007KT 10SM OVC080 06/00 A3027 RMK AO2 SLP267 T00610000
Loading
Personal Weather Stations






























Interactive Weather Map New forecast layout! Learn more

10-Day Weather Forecast

Advertisements
Track Severe Weather on mobile